sensor_id;sensor_type;location;lat;lon;timestamp;P1;durP1;ratioP1;P2;durP2;ratioP2
18657;SDS011;9458;50.942;5.074;2022-12-18T00:02:00;58.07;;;24.33;;
18657;SDS011;9458;50.942;5.074;2022-12-18T00:04:29;65.17;;;26.80;;
18657;SDS011;9458;50.942;5.074;2022-12-18T00:06:57;79.70;;;27.63;;
18657;SDS011;9458;50.942;5.074;2022-12-18T00:09:26;63.23;;;26.07;;
18657;SDS011;9458;50.942;5.074;2022-12-18T00:11:54;62.63;;;29.20;;
18657;SDS011;9458;50.942;5.074;2022-12-18T00:14:23;68.13;;;30.27;;
18657;SDS011;9458;50.942;5.074;2022-12-18T00:16:51;64.73;;;26.63;;
18657;SDS011;9458;50.942;5.074;2022-12-18T00:19:21;66.00;;;29.60;;
18657;SDS011;9458;50.942;5.074;2022-12-18T00:21:48;69.00;;;29.07;;
18657;SDS011;9458;50.942;5.074;2022-12-18T00:24:16;68.83;;;29.63;;
18657;SDS011;9458;50.942;5.074;2022-12-18T00:26:44;71.63;;;35.30;;
18657;SDS011;9458;50.942;5.074;2022-12-18T00:29:12;73.13;;;35.37;;
18657;SDS011;9458;50.942;5.074;2022-12-18T00:31:41;65.43;;;30.20;;
18657;SDS011;9458;50.942;5.074;2022-12-18T00:34:10;67.07;;;31.53;;
18657;SDS011;9458;50.942;5.074;2022-12-18T00:36:41;70.47;;;36.10;;
18657;SDS011;9458;50.942;5.074;2022-12-18T00:39:10;70.97;;;31.90;;
18657;SDS011;9458;50.942;5.074;2022-12-18T00:41:39;66.10;;;34.03;;
18657;SDS011;9458;50.942;5.074;2022-12-18T00:44:24;74.40;;;37.53;;
18657;SDS011;9458;50.942;5.074;2022-12-18T00:46:52;62.40;;;27.17;;
18657;SDS011;9458;50.942;5.074;2022-12-18T00:49:20;64.63;;;31.90;;
18657;SDS011;9458;50.942;5.074;2022-12-18T00:51:50;63.43;;;31.63;;
18657;SDS011;9458;50.942;5.074;2022-12-18T00:54:19;66.37;;;30.13;;
18657;SDS011;9458;50.942;5.074;2022-12-18T00:56:48;65.67;;;32.87;;
18657;SDS011;9458;50.942;5.074;2022-12-18T00:59:16;59.57;;;25.87;;
18657;SDS011;9458;50.942;5.074;2022-12-18T01:01:45;60.83;;;25.87;;
18657;SDS011;9458;50.942;5.074;2022-12-18T01:04:21;67.13;;;30.40;;
18657;SDS011;9458;50.942;5.074;2022-12-18T01:06:50;62.70;;;29.37;;
18657;SDS011;9458;50.942;5.074;2022-12-18T01:09:19;67.93;;;34.87;;
18657;SDS011;9458;50.942;5.074;2022-12-18T01:11:48;76.50;;;33.33;;
18657;SDS011;9458;50.942;5.074;2022-12-18T01:14:20;70.50;;;34.23;;
18657;SDS011;9458;50.942;5.074;2022-12-18T01:16:50;75.33;;;35.10;;
18657;SDS011;9458;50.942;5.074;2022-12-18T01:19:18;66.03;;;32.30;;
18657;SDS011;9458;50.942;5.074;2022-12-18T01:21:47;67.47;;;33.77;;
18657;SDS011;9458;50.942;5.074;2022-12-18T01:24:17;58.73;;;25.53;;
18657;SDS011;9458;50.942;5.074;2022-12-18T01:26:45;70.03;;;30.37;;
18657;SDS011;9458;50.942;5.074;2022-12-18T01:29:13;62.07;;;31.10;;
18657;SDS011;9458;50.942;5.074;2022-12-18T01:31:42;68.20;;;32.10;;
18657;SDS011;9458;50.942;5.074;2022-12-18T01:34:11;72.40;;;32.00;;
18657;SDS011;9458;50.942;5.074;2022-12-18T01:36:48;67.87;;;31.90;;
18657;SDS011;9458;50.942;5.074;2022-12-18T01:39:28;58.57;;;29.53;;
18657;SDS011;9458;50.942;5.074;2022-12-18T01:41:59;57.60;;;28.97;;
18657;SDS011;9458;50.942;5.074;2022-12-18T01:44:51;59.80;;;30.60;;
18657;SDS011;9458;50.942;5.074;2022-12-18T01:47:26;61.43;;;31.20;;
18657;SDS011;9458;50.942;5.074;2022-12-18T01:49:58;56.30;;;28.83;;
18657;SDS011;9458;50.942;5.074;2022-12-18T01:52:33;60.70;;;27.97;;
18657;SDS011;9458;50.942;5.074;2022-12-18T01:55:05;53.27;;;22.40;;
18657;SDS011;9458;50.942;5.074;2022-12-18T01:57:34;55.50;;;24.70;;
18657;SDS011;9458;50.942;5.074;2022-12-18T02:00:07;54.70;;;25.50;;
18657;SDS011;9458;50.942;5.074;2022-12-18T02:02:38;55.47;;;26.37;;
18657;SDS011;9458;50.942;5.074;2022-12-18T02:05:08;52.30;;;26.87;;
18657;SDS011;9458;50.942;5.074;2022-12-18T02:07:42;56.30;;;26.63;;
18657;SDS011;9458;50.942;5.074;2022-12-18T02:10:20;59.70;;;27.07;;
18657;SDS011;9458;50.942;5.074;2022-12-18T02:12:53;51.33;;;22.60;;
18657;SDS011;9458;50.942;5.074;2022-12-18T02:15:30;52.13;;;24.90;;
18657;SDS011;9458;50.942;5.074;2022-12-18T02:18:03;60.30;;;28.93;;
18657;SDS011;9458;50.942;5.074;2022-12-18T02:20:36;59.60;;;30.60;;
18657;SDS011;9458;50.942;5.074;2022-12-18T02:23:11;54.97;;;27.93;;
18657;SDS011;9458;50.942;5.074;2022-12-18T02:28:43;54.10;;;24.73;;
18657;SDS011;9458;50.942;5.074;2022-12-18T02:31:18;60.67;;;28.40;;
18657;SDS011;9458;50.942;5.074;2022-12-18T02:33:50;49.97;;;25.60;;
18657;SDS011;9458;50.942;5.074;2022-12-18T02:36:20;52.17;;;23.77;;
18657;SDS011;9458;50.942;5.074;2022-12-18T02:38:50;49.77;;;22.67;;
18657;SDS011;9458;50.942;5.074;2022-12-18T02:41:29;45.57;;;23.40;;
18657;SDS011;9458;50.942;5.074;2022-12-18T02:43:58;51.73;;;25.10;;
18657;SDS011;9458;50.942;5.074;2022-12-18T02:46:30;46.30;;;24.37;;
18657;SDS011;9458;50.942;5.074;2022-12-18T02:49:06;46.27;;;23.37;;
18657;SDS011;9458;50.942;5.074;2022-12-18T02:51:45;46.33;;;24.87;;
18657;SDS011;9458;50.942;5.074;2022-12-18T02:54:20;49.77;;;20.60;;
18657;SDS011;9458;50.942;5.074;2022-12-18T02:57:05;48.50;;;22.50;;
18657;SDS011;9458;50.942;5.074;2022-12-18T02:59:45;45.60;;;22.70;;
18657;SDS011;9458;50.942;5.074;2022-12-18T03:02:20;46.23;;;23.50;;
18657;SDS011;9458;50.942;5.074;2022-12-18T03:04:55;45.33;;;24.60;;
18657;SDS011;9458;50.942;5.074;2022-12-18T03:07:33;40.77;;;22.30;;
18657;SDS011;9458;50.942;5.074;2022-12-18T03:10:04;42.27;;;22.37;;
18657;SDS011;9458;50.942;5.074;2022-12-18T03:12:40;44.33;;;24.37;;
18657;SDS011;9458;50.942;5.074;2022-12-18T03:15:13;42.30;;;19.73;;
18657;SDS011;9458;50.942;5.074;2022-12-18T03:17:46;39.47;;;20.63;;
18657;SDS011;9458;50.942;5.074;2022-12-18T03:20:20;36.67;;;18.10;;
18657;SDS011;9458;50.942;5.074;2022-12-18T03:22:50;39.63;;;18.00;;
18657;SDS011;9458;50.942;5.074;2022-12-18T03:25:21;37.40;;;19.70;;
18657;SDS011;9458;50.942;5.074;2022-12-18T03:27:51;43.00;;;20.97;;
18657;SDS011;9458;50.942;5.074;2022-12-18T03:30:22;41.30;;;22.30;;
18657;SDS011;9458;50.942;5.074;2022-12-18T03:32:52;38.50;;;18.13;;
18657;SDS011;9458;50.942;5.074;2022-12-18T03:35:26;44.53;;;22.87;;
18657;SDS011;9458;50.942;5.074;2022-12-18T03:37:57;39.17;;;21.10;;
18657;SDS011;9458;50.942;5.074;2022-12-18T03:40:26;37.10;;;21.37;;
18657;SDS011;9458;50.942;5.074;2022-12-18T03:43:00;37.50;;;20.40;;
18657;SDS011;9458;50.942;5.074;2022-12-18T03:45:36;40.70;;;20.23;;
18657;SDS011;9458;50.942;5.074;2022-12-18T03:48:10;34.63;;;19.03;;
18657;SDS011;9458;50.942;5.074;2022-12-18T03:50:44;35.07;;;18.90;;
18657;SDS011;9458;50.942;5.074;2022-12-18T03:53:18;37.10;;;19.57;;
18657;SDS011;9458;50.942;5.074;2022-12-18T03:55:59;32.30;;;18.23;;
18657;SDS011;9458;50.942;5.074;2022-12-18T03:58:31;32.90;;;17.67;;
18657;SDS011;9458;50.942;5.074;2022-12-18T04:01:02;34.50;;;17.57;;
18657;SDS011;9458;50.942;5.074;2022-12-18T04:03:35;35.63;;;19.27;;
18657;SDS011;9458;50.942;5.074;2022-12-18T04:06:05;37.73;;;20.27;;
18657;SDS011;9458;50.942;5.074;2022-12-18T04:08:34;40.03;;;20.20;;
18657;SDS011;9458;50.942;5.074;2022-12-18T04:11:02;37.33;;;20.23;;
18657;SDS011;9458;50.942;5.074;2022-12-18T04:13:34;41.83;;;21.97;;
18657;SDS011;9458;50.942;5.074;2022-12-18T04:16:03;37.10;;;21.03;;
18657;SDS011;9458;50.942;5.074;2022-12-18T04:18:32;36.53;;;19.40;;
18657;SDS011;9458;50.942;5.074;2022-12-18T04:21:01;34.23;;;20.23;;
18657;SDS011;9458;50.942;5.074;2022-12-18T04:23:29;34.83;;;16.87;;
18657;SDS011;9458;50.942;5.074;2022-12-18T04:25:56;35.70;;;20.27;;
18657;SDS011;9458;50.942;5.074;2022-12-18T04:28:24;35.30;;;20.57;;
18657;SDS011;9458;50.942;5.074;2022-12-18T04:30:54;37.17;;;20.63;;
18657;SDS011;9458;50.942;5.074;2022-12-18T04:33:21;35.63;;;19.77;;
18657;SDS011;9458;50.942;5.074;2022-12-18T04:35:50;39.07;;;20.73;;
18657;SDS011;9458;50.942;5.074;2022-12-18T04:38:17;37.17;;;19.53;;
18657;SDS011;9458;50.942;5.074;2022-12-18T04:40:45;35.83;;;18.40;;
18657;SDS011;9458;50.942;5.074;2022-12-18T04:43:13;32.10;;;18.73;;
18657;SDS011;9458;50.942;5.074;2022-12-18T04:45:41;37.30;;;19.53;;
18657;SDS011;9458;50.942;5.074;2022-12-18T04:48:10;32.77;;;15.00;;
18657;SDS011;9458;50.942;5.074;2022-12-18T04:50:38;30.50;;;17.30;;
18657;SDS011;9458;50.942;5.074;2022-12-18T04:53:08;34.27;;;17.90;;
18657;SDS011;9458;50.942;5.074;2022-12-18T04:55:36;36.00;;;18.63;;
18657;SDS011;9458;50.942;5.074;2022-12-18T04:58:04;37.13;;;18.67;;
18657;SDS011;9458;50.942;5.074;2022-12-18T05:00:32;36.17;;;18.67;;
18657;SDS011;9458;50.942;5.074;2022-12-18T05:03:00;33.60;;;18.27;;
18657;SDS011;9458;50.942;5.074;2022-12-18T05:05:30;32.63;;;17.03;;
18657;SDS011;9458;50.942;5.074;2022-12-18T05:07:58;33.40;;;19.17;;
18657;SDS011;9458;50.942;5.074;2022-12-18T05:10:26;32.03;;;18.00;;
18657;SDS011;9458;50.942;5.074;2022-12-18T05:12:54;35.13;;;16.70;;
18657;SDS011;9458;50.942;5.074;2022-12-18T05:15:26;33.33;;;18.37;;
18657;SDS011;9458;50.942;5.074;2022-12-18T05:17:55;31.57;;;17.93;;
18657;SDS011;9458;50.942;5.074;2022-12-18T05:20:24;31.87;;;17.90;;
18657;SDS011;9458;50.942;5.074;2022-12-18T05:22:54;32.40;;;17.90;;
18657;SDS011;9458;50.942;5.074;2022-12-18T05:25:22;36.97;;;18.00;;
18657;SDS011;9458;50.942;5.074;2022-12-18T05:27:51;35.80;;;18.90;;
18657;SDS011;9458;50.942;5.074;2022-12-18T05:30:19;37.67;;;20.87;;
18657;SDS011;9458;50.942;5.074;2022-12-18T05:32:48;41.03;;;20.83;;
18657;SDS011;9458;50.942;5.074;2022-12-18T05:35:15;34.73;;;18.83;;
18657;SDS011;9458;50.942;5.074;2022-12-18T05:37:43;31.03;;;17.60;;
18657;SDS011;9458;50.942;5.074;2022-12-18T05:40:13;29.97;;;16.97;;
18657;SDS011;9458;50.942;5.074;2022-12-18T05:42:41;27.47;;;15.80;;
18657;SDS011;9458;50.942;5.074;2022-12-18T05:45:09;30.23;;;17.63;;
18657;SDS011;9458;50.942;5.074;2022-12-18T05:47:38;34.17;;;17.53;;
18657;SDS011;9458;50.942;5.074;2022-12-18T05:50:06;28.47;;;16.73;;
18657;SDS011;9458;50.942;5.074;2022-12-18T05:52:35;30.67;;;17.43;;
18657;SDS011;9458;50.942;5.074;2022-12-18T05:55:03;31.40;;;16.93;;
18657;SDS011;9458;50.942;5.074;2022-12-18T05:57:33;32.63;;;17.47;;
18657;SDS011;9458;50.942;5.074;2022-12-18T06:00:01;31.63;;;17.90;;
18657;SDS011;9458;50.942;5.074;2022-12-18T06:02:31;31.47;;;17.50;;
18657;SDS011;9458;50.942;5.074;2022-12-18T06:04:59;33.57;;;18.03;;
18657;SDS011;9458;50.942;5.074;2022-12-18T06:07:27;29.40;;;16.73;;
18657;SDS011;9458;50.942;5.074;2022-12-18T06:09:55;29.97;;;17.03;;
18657;SDS011;9458;50.942;5.074;2022-12-18T06:12:23;30.77;;;17.37;;
18657;SDS011;9458;50.942;5.074;2022-12-18T06:14:52;31.73;;;16.97;;
18657;SDS011;9458;50.942;5.074;2022-12-18T06:17:20;30.97;;;16.47;;
18657;SDS011;9458;50.942;5.074;2022-12-18T06:19:49;32.60;;;18.13;;
18657;SDS011;9458;50.942;5.074;2022-12-18T06:22:17;36.07;;;17.93;;
18657;SDS011;9458;50.942;5.074;2022-12-18T06:24:46;31.67;;;18.13;;
18657;SDS011;9458;50.942;5.074;2022-12-18T06:27:13;28.53;;;17.07;;
18657;SDS011;9458;50.942;5.074;2022-12-18T06:29:42;27.33;;;16.53;;
18657;SDS011;9458;50.942;5.074;2022-12-18T06:32:11;30.57;;;17.07;;
18657;SDS011;9458;50.942;5.074;2022-12-18T06:34:39;31.47;;;17.80;;
18657;SDS011;9458;50.942;5.074;2022-12-18T06:37:08;32.83;;;17.53;;
18657;SDS011;9458;50.942;5.074;2022-12-18T06:39:36;31.07;;;17.57;;
18657;SDS011;9458;50.942;5.074;2022-12-18T06:42:04;28.83;;;16.70;;
18657;SDS011;9458;50.942;5.074;2022-12-18T06:44:32;29.60;;;15.63;;
18657;SDS011;9458;50.942;5.074;2022-12-18T06:47:00;30.90;;;17.13;;
18657;SDS011;9458;50.942;5.074;2022-12-18T06:49:29;28.60;;;15.70;;
18657;SDS011;9458;50.942;5.074;2022-12-18T06:51:57;30.10;;;16.57;;
18657;SDS011;9458;50.942;5.074;2022-12-18T06:54:24;29.60;;;15.40;;
18657;SDS011;9458;50.942;5.074;2022-12-18T06:56:53;28.80;;;15.93;;
18657;SDS011;9458;50.942;5.074;2022-12-18T06:59:20;29.57;;;16.50;;
18657;SDS011;9458;50.942;5.074;2022-12-18T07:01:49;30.53;;;16.97;;
18657;SDS011;9458;50.942;5.074;2022-12-18T07:04:17;29.23;;;16.53;;
18657;SDS011;9458;50.942;5.074;2022-12-18T07:06:47;29.60;;;16.33;;
18657;SDS011;9458;50.942;5.074;2022-12-18T07:09:16;31.63;;;18.00;;
18657;SDS011;9458;50.942;5.074;2022-12-18T07:11:45;29.00;;;17.73;;
18657;SDS011;9458;50.942;5.074;2022-12-18T07:14:13;29.13;;;16.37;;
18657;SDS011;9458;50.942;5.074;2022-12-18T07:16:41;31.47;;;17.33;;
18657;SDS011;9458;50.942;5.074;2022-12-18T07:19:09;31.87;;;17.63;;
18657;SDS011;9458;50.942;5.074;2022-12-18T07:21:37;44.50;;;23.00;;
18657;SDS011;9458;50.942;5.074;2022-12-18T07:24:07;44.67;;;22.93;;
18657;SDS011;9458;50.942;5.074;2022-12-18T07:26:35;39.80;;;22.53;;
18657;SDS011;9458;50.942;5.074;2022-12-18T07:29:02;50.67;;;24.83;;
18657;SDS011;9458;50.942;5.074;2022-12-18T07:31:31;33.90;;;18.83;;
18657;SDS011;9458;50.942;5.074;2022-12-18T07:33:59;32.47;;;17.03;;
18657;SDS011;9458;50.942;5.074;2022-12-18T07:36:27;30.90;;;16.47;;
18657;SDS011;9458;50.942;5.074;2022-12-18T07:38:55;29.53;;;16.50;;
18657;SDS011;9458;50.942;5.074;2022-12-18T07:41:24;26.47;;;15.60;;
18657;SDS011;9458;50.942;5.074;2022-12-18T07:43:53;29.27;;;15.63;;
18657;SDS011;9458;50.942;5.074;2022-12-18T07:46:20;25.43;;;12.97;;
18657;SDS011;9458;50.942;5.074;2022-12-18T07:48:48;31.30;;;13.17;;
18657;SDS011;9458;50.942;5.074;2022-12-18T07:51:17;35.13;;;17.73;;
18657;SDS011;9458;50.942;5.074;2022-12-18T07:53:45;30.10;;;16.43;;
18657;SDS011;9458;50.942;5.074;2022-12-18T07:56:13;29.40;;;14.50;;
18657;SDS011;9458;50.942;5.074;2022-12-18T07:58:44;30.77;;;15.03;;
18657;SDS011;9458;50.942;5.074;2022-12-18T08:01:15;29.07;;;15.90;;
18657;SDS011;9458;50.942;5.074;2022-12-18T08:03:45;28.00;;;15.30;;
18657;SDS011;9458;50.942;5.074;2022-12-18T08:06:14;28.37;;;13.70;;
18657;SDS011;9458;50.942;5.074;2022-12-18T08:08:42;28.70;;;12.70;;
18657;SDS011;9458;50.942;5.074;2022-12-18T08:11:11;23.70;;;12.60;;
18657;SDS011;9458;50.942;5.074;2022-12-18T08:13:40;24.53;;;14.73;;
18657;SDS011;9458;50.942;5.074;2022-12-18T08:16:12;27.73;;;15.20;;
18657;SDS011;9458;50.942;5.074;2022-12-18T08:18:40;24.73;;;13.57;;
18657;SDS011;9458;50.942;5.074;2022-12-18T08:21:07;27.30;;;13.43;;
18657;SDS011;9458;50.942;5.074;2022-12-18T08:23:37;21.73;;;10.83;;
18657;SDS011;9458;50.942;5.074;2022-12-18T08:26:06;23.40;;;11.27;;
18657;SDS011;9458;50.942;5.074;2022-12-18T08:28:35;21.73;;;9.70;;
18657;SDS011;9458;50.942;5.074;2022-12-18T08:31:03;24.37;;;12.27;;
18657;SDS011;9458;50.942;5.074;2022-12-18T08:33:33;22.93;;;11.70;;
18657;SDS011;9458;50.942;5.074;2022-12-18T08:36:01;21.00;;;10.37;;
18657;SDS011;9458;50.942;5.074;2022-12-18T08:38:31;22.67;;;11.47;;
18657;SDS011;9458;50.942;5.074;2022-12-18T08:40:59;18.90;;;10.93;;
18657;SDS011;9458;50.942;5.074;2022-12-18T08:43:28;19.37;;;10.60;;
18657;SDS011;9458;50.942;5.074;2022-12-18T08:46:13;22.37;;;11.13;;
18657;SDS011;9458;50.942;5.074;2022-12-18T08:48:45;19.73;;;10.20;;
18657;SDS011;9458;50.942;5.074;2022-12-18T08:51:16;21.63;;;11.10;;
18657;SDS011;9458;50.942;5.074;2022-12-18T08:53:43;21.97;;;10.63;;
18657;SDS011;9458;50.942;5.074;2022-12-18T08:56:11;17.97;;;10.03;;
18657;SDS011;9458;50.942;5.074;2022-12-18T08:58:40;20.80;;;10.17;;
18657;SDS011;9458;50.942;5.074;2022-12-18T09:01:11;17.33;;;10.00;;
18657;SDS011;9458;50.942;5.074;2022-12-18T09:03:40;20.63;;;11.03;;
18657;SDS011;9458;50.942;5.074;2022-12-18T09:06:12;16.77;;;9.30;;
18657;SDS011;9458;50.942;5.074;2022-12-18T09:08:41;19.60;;;10.33;;
18657;SDS011;9458;50.942;5.074;2022-12-18T09:11:11;17.63;;;9.40;;
18657;SDS011;9458;50.942;5.074;2022-12-18T09:13:42;15.17;;;8.33;;
18657;SDS011;9458;50.942;5.074;2022-12-18T09:16:10;16.00;;;9.37;;
18657;SDS011;9458;50.942;5.074;2022-12-18T09:18:37;17.27;;;8.47;;
18657;SDS011;9458;50.942;5.074;2022-12-18T09:21:11;18.07;;;9.43;;
18657;SDS011;9458;50.942;5.074;2022-12-18T09:23:40;18.73;;;9.73;;
18657;SDS011;9458;50.942;5.074;2022-12-18T09:26:10;17.47;;;9.33;;
18657;SDS011;9458;50.942;5.074;2022-12-18T09:28:41;14.93;;;8.80;;
18657;SDS011;9458;50.942;5.074;2022-12-18T09:31:11;18.60;;;8.93;;
18657;SDS011;9458;50.942;5.074;2022-12-18T09:33:43;15.10;;;8.47;;
18657;SDS011;9458;50.942;5.074;2022-12-18T09:36:16;14.23;;;8.53;;
18657;SDS011;9458;50.942;5.074;2022-12-18T09:39:00;18.93;;;9.70;;
18657;SDS011;9458;50.942;5.074;2022-12-18T09:41:44;18.20;;;9.07;;
18657;SDS011;9458;50.942;5.074;2022-12-18T09:44:17;17.33;;;9.30;;
18657;SDS011;9458;50.942;5.074;2022-12-18T09:46:51;17.03;;;9.77;;
18657;SDS011;9458;50.942;5.074;2022-12-18T09:49:25;19.37;;;9.13;;
18657;SDS011;9458;50.942;5.074;2022-12-18T09:51:59;21.00;;;9.43;;
18657;SDS011;9458;50.942;5.074;2022-12-18T09:54:33;15.00;;;7.80;;
18657;SDS011;9458;50.942;5.074;2022-12-18T09:57:05;17.43;;;8.53;;
18657;SDS011;9458;50.942;5.074;2022-12-18T09:59:34;19.60;;;9.47;;
18657;SDS011;9458;50.942;5.074;2022-12-18T10:02:12;16.83;;;9.50;;
18657;SDS011;9458;50.942;5.074;2022-12-18T10:04:42;13.90;;;8.37;;
18657;SDS011;9458;50.942;5.074;2022-12-18T10:07:13;16.00;;;8.37;;
18657;SDS011;9458;50.942;5.074;2022-12-18T10:09:48;15.63;;;8.50;;
18657;SDS011;9458;50.942;5.074;2022-12-18T10:12:30;16.57;;;7.77;;
18657;SDS011;9458;50.942;5.074;2022-12-18T10:15:05;15.37;;;8.47;;
18657;SDS011;9458;50.942;5.074;2022-12-18T10:20:24;14.57;;;7.97;;
18657;SDS011;9458;50.942;5.074;2022-12-18T10:23:02;13.97;;;7.97;;
18657;SDS011;9458;50.942;5.074;2022-12-18T10:25:41;15.00;;;7.83;;
18657;SDS011;9458;50.942;5.074;2022-12-18T10:28:19;13.17;;;8.47;;
18657;SDS011;9458;50.942;5.074;2022-12-18T10:30:48;15.33;;;8.73;;
18657;SDS011;9458;50.942;5.074;2022-12-18T10:33:17;15.30;;;9.10;;
18657;SDS011;9458;50.942;5.074;2022-12-18T10:35:46;17.37;;;8.83;;
18657;SDS011;9458;50.942;5.074;2022-12-18T10:41:04;17.07;;;8.47;;
18657;SDS011;9458;50.942;5.074;2022-12-18T10:43:35;15.63;;;9.17;;
18657;SDS011;9458;50.942;5.074;2022-12-18T10:46:11;15.87;;;8.50;;
18657;SDS011;9458;50.942;5.074;2022-12-18T10:48:49;12.50;;;8.20;;
18657;SDS011;9458;50.942;5.074;2022-12-18T10:51:21;18.40;;;8.60;;
18657;SDS011;9458;50.942;5.074;2022-12-18T10:53:55;15.27;;;8.60;;
18657;SDS011;9458;50.942;5.074;2022-12-18T10:56:25;15.23;;;8.80;;
18657;SDS011;9458;50.942;5.074;2022-12-18T10:58:56;20.93;;;9.70;;
18657;SDS011;9458;50.942;5.074;2022-12-18T11:01:27;13.07;;;8.73;;
18657;SDS011;9458;50.942;5.074;2022-12-18T11:04:00;16.10;;;8.47;;
18657;SDS011;9458;50.942;5.074;2022-12-18T11:06:36;15.80;;;9.03;;
18657;SDS011;9458;50.942;5.074;2022-12-18T11:09:24;14.60;;;8.33;;
18657;SDS011;9458;50.942;5.074;2022-12-18T11:19:39;17.53;;;8.83;;
18657;SDS011;9458;50.942;5.074;2022-12-18T11:22:17;17.07;;;8.60;;
18657;SDS011;9458;50.942;5.074;2022-12-18T11:24:54;14.20;;;7.87;;
18657;SDS011;9458;50.942;5.074;2022-12-18T11:27:24;13.50;;;8.00;;
18657;SDS011;9458;50.942;5.074;2022-12-18T11:29:52;12.67;;;8.07;;
18657;SDS011;9458;50.942;5.074;2022-12-18T11:32:25;12.87;;;8.23;;
18657;SDS011;9458;50.942;5.074;2022-12-18T11:34:59;14.70;;;8.53;;
18657;SDS011;9458;50.942;5.074;2022-12-18T11:37:31;12.93;;;7.70;;
18657;SDS011;9458;50.942;5.074;2022-12-18T11:40:05;14.50;;;8.90;;
18657;SDS011;9458;50.942;5.074;2022-12-18T11:42:40;14.90;;;8.67;;
18657;SDS011;9458;50.942;5.074;2022-12-18T11:45:24;14.73;;;8.60;;
18657;SDS011;9458;50.942;5.074;2022-12-18T11:48:00;13.90;;;8.53;;
18657;SDS011;9458;50.942;5.074;2022-12-18T11:50:32;16.83;;;8.97;;
18657;SDS011;9458;50.942;5.074;2022-12-18T11:53:49;13.07;;;8.47;;
18657;SDS011;9458;50.942;5.074;2022-12-18T11:56:14;15.80;;;8.87;;
18657;SDS011;9458;50.942;5.074;2022-12-18T11:58:57;16.93;;;8.77;;
18657;SDS011;9458;50.942;5.074;2022-12-18T12:01:35;16.63;;;8.93;;
18657;SDS011;9458;50.942;5.074;2022-12-18T12:04:17;16.97;;;9.47;;
18657;SDS011;9458;50.942;5.074;2022-12-18T12:07:09;14.50;;;9.20;;
18657;SDS011;9458;50.942;5.074;2022-12-18T12:10:04;18.60;;;9.90;;
18657;SDS011;9458;50.942;5.074;2022-12-18T12:12:53;13.40;;;8.17;;
18657;SDS011;9458;50.942;5.074;2022-12-18T12:15:32;17.67;;;9.00;;
18657;SDS011;9458;50.942;5.074;2022-12-18T12:18:21;18.10;;;9.10;;
18657;SDS011;9458;50.942;5.074;2022-12-18T12:21:02;17.07;;;9.30;;
18657;SDS011;9458;50.942;5.074;2022-12-18T12:23:41;14.70;;;8.97;;
18657;SDS011;9458;50.942;5.074;2022-12-18T12:26:22;17.97;;;9.33;;
18657;SDS011;9458;50.942;5.074;2022-12-18T12:37:15;18.00;;;10.17;;
18657;SDS011;9458;50.942;5.074;2022-12-18T12:39:58;19.40;;;9.87;;
18657;SDS011;9458;50.942;5.074;2022-12-18T12:42:44;16.03;;;9.37;;
18657;SDS011;9458;50.942;5.074;2022-12-18T12:45:48;18.50;;;10.13;;
18657;SDS011;9458;50.942;5.074;2022-12-18T12:48:43;19.00;;;10.00;;
18657;SDS011;9458;50.942;5.074;2022-12-18T12:51:28;15.47;;;9.93;;
18657;SDS011;9458;50.942;5.074;2022-12-18T13:12:18;20.67;;;11.37;;
18657;SDS011;9458;50.942;5.074;2022-12-18T13:15:28;19.43;;;10.73;;
18657;SDS011;9458;50.942;5.074;2022-12-18T13:18:27;17.27;;;10.70;;
18657;SDS011;9458;50.942;5.074;2022-12-18T13:21:02;18.97;;;10.07;;
18657;SDS011;9458;50.942;5.074;2022-12-18T13:24:15;19.07;;;10.67;;
18657;SDS011;9458;50.942;5.074;2022-12-18T13:33:57;20.03;;;11.20;;
18657;SDS011;9458;50.942;5.074;2022-12-18T13:47:25;21.03;;;11.23;;
18657;SDS011;9458;50.942;5.074;2022-12-18T14:34:30;21.17;;;12.43;;
18657;SDS011;9458;50.942;5.074;2022-12-18T14:37:00;22.50;;;12.83;;
18657;SDS011;9458;50.942;5.074;2022-12-18T14:39:29;21.60;;;12.83;;
18657;SDS011;9458;50.942;5.074;2022-12-18T14:42:01;25.83;;;12.87;;
18657;SDS011;9458;50.942;5.074;2022-12-18T14:44:31;21.07;;;12.13;;
18657;SDS011;9458;50.942;5.074;2022-12-18T14:46:59;25.33;;;14.03;;
18657;SDS011;9458;50.942;5.074;2022-12-18T14:49:31;22.80;;;12.90;;
18657;SDS011;9458;50.942;5.074;2022-12-18T14:52:04;22.57;;;13.50;;
18657;SDS011;9458;50.942;5.074;2022-12-18T14:54:34;24.00;;;13.40;;
18657;SDS011;9458;50.942;5.074;2022-12-18T14:57:20;23.27;;;12.97;;
18657;SDS011;9458;50.942;5.074;2022-12-18T14:59:52;24.07;;;13.83;;
18657;SDS011;9458;50.942;5.074;2022-12-18T15:02:21;23.03;;;12.63;;
18657;SDS011;9458;50.942;5.074;2022-12-18T15:05:01;25.37;;;13.97;;
18657;SDS011;9458;50.942;5.074;2022-12-18T15:07:39;27.97;;;14.47;;
18657;SDS011;9458;50.942;5.074;2022-12-18T15:10:11;27.60;;;13.90;;
18657;SDS011;9458;50.942;5.074;2022-12-18T15:12:46;24.97;;;14.10;;
18657;SDS011;9458;50.942;5.074;2022-12-18T15:18:21;23.00;;;13.20;;
18657;SDS011;9458;50.942;5.074;2022-12-18T15:20:57;24.93;;;13.87;;
18657;SDS011;9458;50.942;5.074;2022-12-18T15:23:34;25.43;;;14.50;;
18657;SDS011;9458;50.942;5.074;2022-12-18T15:26:04;25.33;;;14.33;;
18657;SDS011;9458;50.942;5.074;2022-12-18T15:28:34;21.03;;;12.90;;
18657;SDS011;9458;50.942;5.074;2022-12-18T15:31:06;21.80;;;13.10;;
18657;SDS011;9458;50.942;5.074;2022-12-18T15:34:12;22.73;;;13.83;;
18657;SDS011;9458;50.942;5.074;2022-12-18T15:36:49;25.47;;;14.93;;
18657;SDS011;9458;50.942;5.074;2022-12-18T15:39:17;29.93;;;16.10;;
18657;SDS011;9458;50.942;5.074;2022-12-18T15:41:45;35.97;;;16.40;;
18657;SDS011;9458;50.942;5.074;2022-12-18T15:44:28;31.80;;;16.17;;
18657;SDS011;9458;50.942;5.074;2022-12-18T15:46:56;30.30;;;16.87;;
18657;SDS011;9458;50.942;5.074;2022-12-18T15:49:24;32.30;;;16.33;;
18657;SDS011;9458;50.942;5.074;2022-12-18T15:51:54;29.60;;;17.17;;
18657;SDS011;9458;50.942;5.074;2022-12-18T15:54:27;23.77;;;14.50;;
18657;SDS011;9458;50.942;5.074;2022-12-18T15:57:12;25.30;;;13.57;;
18657;SDS011;9458;50.942;5.074;2022-12-18T15:59:53;24.43;;;13.47;;
18657;SDS011;9458;50.942;5.074;2022-12-18T16:02:23;24.47;;;13.27;;
18657;SDS011;9458;50.942;5.074;2022-12-18T16:04:52;24.67;;;12.17;;
18657;SDS011;9458;50.942;5.074;2022-12-18T16:07:22;21.70;;;11.97;;
18657;SDS011;9458;50.942;5.074;2022-12-18T16:09:49;24.30;;;13.67;;
18657;SDS011;9458;50.942;5.074;2022-12-18T16:12:19;26.40;;;13.20;;
18657;SDS011;9458;50.942;5.074;2022-12-18T16:14:50;23.03;;;12.97;;
18657;SDS011;9458;50.942;5.074;2022-12-18T16:17:19;26.87;;;16.90;;
18657;SDS011;9458;50.942;5.074;2022-12-18T16:19:47;26.40;;;14.57;;
18657;SDS011;9458;50.942;5.074;2022-12-18T16:22:18;28.17;;;14.07;;
18657;SDS011;9458;50.942;5.074;2022-12-18T16:24:50;24.70;;;13.13;;
18657;SDS011;9458;50.942;5.074;2022-12-18T16:27:18;25.03;;;13.57;;
18657;SDS011;9458;50.942;5.074;2022-12-18T16:29:51;26.03;;;14.33;;
18657;SDS011;9458;50.942;5.074;2022-12-18T16:35:09;24.90;;;12.90;;
18657;SDS011;9458;50.942;5.074;2022-12-18T16:37:37;23.33;;;12.03;;
18657;SDS011;9458;50.942;5.074;2022-12-18T16:40:10;23.33;;;12.33;;
18657;SDS011;9458;50.942;5.074;2022-12-18T16:42:43;22.33;;;12.63;;
18657;SDS011;9458;50.942;5.074;2022-12-18T16:45:14;22.53;;;12.33;;
18657;SDS011;9458;50.942;5.074;2022-12-18T16:47:45;22.70;;;11.90;;
18657;SDS011;9458;50.942;5.074;2022-12-18T16:50:16;23.60;;;12.43;;
18657;SDS011;9458;50.942;5.074;2022-12-18T16:52:49;27.03;;;12.60;;
18657;SDS011;9458;50.942;5.074;2022-12-18T16:57:54;23.87;;;12.60;;
18657;SDS011;9458;50.942;5.074;2022-12-18T17:00:22;22.57;;;11.67;;
18657;SDS011;9458;50.942;5.074;2022-12-18T17:02:51;24.57;;;11.47;;